sensor_id;sensor_type;location;lat;lon;timestamp;P1;durP1;ratioP1;P2;durP2;ratioP2
81367;SDS011;70823;50.056;14.398;2023-06-22T00:01:51;6.72;;;5.07;;
81367;SDS011;70823;50.056;14.398;2023-06-22T00:04:17;7.10;;;4.67;;
81367;SDS011;70823;50.056;14.398;2023-06-22T00:06:42;7.07;;;4.33;;
81367;SDS011;70823;50.056;14.398;2023-06-22T00:09:07;6.53;;;4.90;;
81367;SDS011;70823;50.056;14.398;2023-06-22T00:11:33;5.67;;;4.33;;
81367;SDS011;70823;50.056;14.398;2023-06-22T00:13:59;8.07;;;4.82;;
81367;SDS011;70823;50.056;14.398;2023-06-22T00:16:24;6.28;;;4.15;;
81367;SDS011;70823;50.056;14.398;2023-06-22T00:18:50;7.53;;;4.47;;
81367;SDS011;70823;50.056;14.398;2023-06-22T00:21:15;7.43;;;4.70;;
81367;SDS011;70823;50.056;14.398;2023-06-22T00:23:41;6.40;;;4.38;;
81367;SDS011;70823;50.056;14.398;2023-06-22T00:26:06;7.70;;;5.90;;
81367;SDS011;70823;50.056;14.398;2023-06-22T00:28:32;6.60;;;4.65;;
81367;SDS011;70823;50.056;14.398;2023-06-22T00:30:57;7.88;;;4.38;;
81367;SDS011;70823;50.056;14.398;2023-06-22T00:33:22;7.25;;;5.25;;
81367;SDS011;70823;50.056;14.398;2023-06-22T00:35:48;6.53;;;4.67;;
81367;SDS011;70823;50.056;14.398;2023-06-22T00:38:13;8.10;;;4.70;;
81367;SDS011;70823;50.056;14.398;2023-06-22T00:40:38;8.40;;;4.67;;
81367;SDS011;70823;50.056;14.398;2023-06-22T00:43:04;6.47;;;4.32;;
81367;SDS011;70823;50.056;14.398;2023-06-22T00:45:30;7.85;;;5.00;;
81367;SDS011;70823;50.056;14.398;2023-06-22T00:47:56;8.10;;;5.05;;
81367;SDS011;70823;50.056;14.398;2023-06-22T00:50:23;7.68;;;5.28;;
81367;SDS011;70823;50.056;14.398;2023-06-22T00:52:54;7.32;;;5.07;;
81367;SDS011;70823;50.056;14.398;2023-06-22T00:55:22;9.95;;;5.03;;
81367;SDS011;70823;50.056;14.398;2023-06-22T00:57:47;8.25;;;4.78;;
81367;SDS011;70823;50.056;14.398;2023-06-22T01:00:13;7.35;;;4.90;;
81367;SDS011;70823;50.056;14.398;2023-06-22T01:05:06;5.97;;;4.53;;
81367;SDS011;70823;50.056;14.398;2023-06-22T01:07:35;7.32;;;4.80;;
81367;SDS011;70823;50.056;14.398;2023-06-22T01:15:23;7.40;;;4.90;;
81367;SDS011;70823;50.056;14.398;2023-06-22T01:17:54;6.20;;;4.82;;
81367;SDS011;70823;50.056;14.398;2023-06-22T01:20:21;8.07;;;4.55;;
81367;SDS011;70823;50.056;14.398;2023-06-22T01:25:43;7.72;;;5.68;;
81367;SDS011;70823;50.056;14.398;2023-06-22T01:31:00;8.02;;;4.82;;
81367;SDS011;70823;50.056;14.398;2023-06-22T01:33:31;6.50;;;5.00;;
81367;SDS011;70823;50.056;14.398;2023-06-22T01:38:23;8.80;;;5.30;;
81367;SDS011;70823;50.056;14.398;2023-06-22T01:40:49;8.30;;;5.28;;
81367;SDS011;70823;50.056;14.398;2023-06-22T01:43:15;6.90;;;5.30;;
81367;SDS011;70823;50.056;14.398;2023-06-22T01:45:40;7.28;;;5.35;;
81367;SDS011;70823;50.056;14.398;2023-06-22T01:48:06;7.63;;;4.72;;
81367;SDS011;70823;50.056;14.398;2023-06-22T01:50:31;7.15;;;6.07;;
81367;SDS011;70823;50.056;14.398;2023-06-22T01:52:57;7.32;;;5.22;;
81367;SDS011;70823;50.056;14.398;2023-06-22T01:55:22;6.83;;;5.20;;
81367;SDS011;70823;50.056;14.398;2023-06-22T01:57:48;9.15;;;5.63;;
81367;SDS011;70823;50.056;14.398;2023-06-22T02:00:14;7.38;;;5.60;;
81367;SDS011;70823;50.056;14.398;2023-06-22T02:05:21;6.20;;;5.57;;
81367;SDS011;70823;50.056;14.398;2023-06-22T02:08:08;7.05;;;5.07;;
81367;SDS011;70823;50.056;14.398;2023-06-22T02:10:36;8.05;;;5.90;;
81367;SDS011;70823;50.056;14.398;2023-06-22T02:13:04;7.22;;;5.85;;
81367;SDS011;70823;50.056;14.398;2023-06-22T02:15:30;7.45;;;4.97;;
81367;SDS011;70823;50.056;14.398;2023-06-22T02:17:55;7.57;;;5.90;;
81367;SDS011;70823;50.056;14.398;2023-06-22T02:20:21;6.38;;;4.82;;
81367;SDS011;70823;50.056;14.398;2023-06-22T02:22:46;7.57;;;4.80;;
81367;SDS011;70823;50.056;14.398;2023-06-22T02:25:12;6.50;;;4.63;;
81367;SDS011;70823;50.056;14.398;2023-06-22T02:27:37;6.68;;;5.40;;
81367;SDS011;70823;50.056;14.398;2023-06-22T02:30:06;6.88;;;4.88;;
81367;SDS011;70823;50.056;14.398;2023-06-22T02:32:34;7.07;;;4.97;;
81367;SDS011;70823;50.056;14.398;2023-06-22T02:34:59;7.75;;;5.63;;
81367;SDS011;70823;50.056;14.398;2023-06-22T02:37:28;9.25;;;6.10;;
81367;SDS011;70823;50.056;14.398;2023-06-22T02:39:54;6.90;;;4.63;;
81367;SDS011;70823;50.056;14.398;2023-06-22T02:42:20;7.77;;;5.13;;
81367;SDS011;70823;50.056;14.398;2023-06-22T02:44:46;8.85;;;5.70;;
81367;SDS011;70823;50.056;14.398;2023-06-22T02:47:12;7.03;;;5.53;;
81367;SDS011;70823;50.056;14.398;2023-06-22T02:49:37;8.57;;;5.13;;
81367;SDS011;70823;50.056;14.398;2023-06-22T02:52:03;8.75;;;4.85;;
81367;SDS011;70823;50.056;14.398;2023-06-22T02:54:28;6.45;;;5.10;;
81367;SDS011;70823;50.056;14.398;2023-06-22T02:56:53;5.47;;;4.60;;
81367;SDS011;70823;50.056;14.398;2023-06-22T02:59:19;9.07;;;5.30;;
81367;SDS011;70823;50.056;14.398;2023-06-22T03:01:48;8.07;;;4.72;;
81367;SDS011;70823;50.056;14.398;2023-06-22T03:04:17;6.85;;;4.72;;
81367;SDS011;70823;50.056;14.398;2023-06-22T03:06:43;6.47;;;4.88;;
81367;SDS011;70823;50.056;14.398;2023-06-22T03:09:08;8.40;;;5.83;;
81367;SDS011;70823;50.056;14.398;2023-06-22T03:11:33;8.97;;;4.80;;
81367;SDS011;70823;50.056;14.398;2023-06-22T03:13:59;7.07;;;5.05;;
81367;SDS011;70823;50.056;14.398;2023-06-22T03:16:25;7.30;;;5.22;;
81367;SDS011;70823;50.056;14.398;2023-06-22T03:18:50;12.25;;;5.40;;
81367;SDS011;70823;50.056;14.398;2023-06-22T03:21:16;7.25;;;4.72;;
81367;SDS011;70823;50.056;14.398;2023-06-22T03:23:42;7.07;;;5.15;;
81367;SDS011;70823;50.056;14.398;2023-06-22T03:26:08;6.50;;;5.25;;
81367;SDS011;70823;50.056;14.398;2023-06-22T03:28:34;7.60;;;5.00;;
81367;SDS011;70823;50.056;14.398;2023-06-22T03:30:59;7.50;;;6.03;;
81367;SDS011;70823;50.056;14.398;2023-06-22T03:33:24;7.97;;;6.10;;
81367;SDS011;70823;50.056;14.398;2023-06-22T03:35:50;8.90;;;5.97;;
81367;SDS011;70823;50.056;14.398;2023-06-22T03:38:16;7.23;;;5.00;;
81367;SDS011;70823;50.056;14.398;2023-06-22T03:40:41;10.65;;;5.82;;
81367;SDS011;70823;50.056;14.398;2023-06-22T03:43:07;7.80;;;5.80;;
81367;SDS011;70823;50.056;14.398;2023-06-22T03:45:32;8.43;;;5.97;;
81367;SDS011;70823;50.056;14.398;2023-06-22T03:47:57;7.63;;;6.03;;
81367;SDS011;70823;50.056;14.398;2023-06-22T03:50:23;7.03;;;5.50;;
81367;SDS011;70823;50.056;14.398;2023-06-22T03:52:48;7.97;;;5.60;;
81367;SDS011;70823;50.056;14.398;2023-06-22T03:55:13;8.10;;;5.10;;
81367;SDS011;70823;50.056;14.398;2023-06-22T03:57:39;9.23;;;6.18;;
81367;SDS011;70823;50.056;14.398;2023-06-22T04:00:04;7.97;;;6.07;;
81367;SDS011;70823;50.056;14.398;2023-06-22T04:02:33;7.18;;;5.47;;
81367;SDS011;70823;50.056;14.398;2023-06-22T04:04:58;8.03;;;5.20;;
81367;SDS011;70823;50.056;14.398;2023-06-22T04:07:23;8.67;;;5.80;;
81367;SDS011;70823;50.056;14.398;2023-06-22T04:09:49;9.80;;;5.87;;
81367;SDS011;70823;50.056;14.398;2023-06-22T04:12:14;7.20;;;5.20;;
81367;SDS011;70823;50.056;14.398;2023-06-22T04:14:39;8.43;;;5.43;;
81367;SDS011;70823;50.056;14.398;2023-06-22T04:17:05;8.57;;;6.20;;
81367;SDS011;70823;50.056;14.398;2023-06-22T04:19:30;8.15;;;5.88;;
81367;SDS011;70823;50.056;14.398;2023-06-22T04:21:55;8.30;;;5.97;;
81367;SDS011;70823;50.056;14.398;2023-06-22T04:24:21;6.13;;;4.97;;
81367;SDS011;70823;50.056;14.398;2023-06-22T04:26:46;6.95;;;5.63;;
81367;SDS011;70823;50.056;14.398;2023-06-22T04:29:12;8.40;;;5.90;;
81367;SDS011;70823;50.056;14.398;2023-06-22T04:31:38;6.60;;;5.30;;
81367;SDS011;70823;50.056;14.398;2023-06-22T04:34:04;10.88;;;5.70;;
81367;SDS011;70823;50.056;14.398;2023-06-22T04:36:36;10.48;;;5.55;;
81367;SDS011;70823;50.056;14.398;2023-06-22T04:39:12;5.90;;;4.80;;
81367;SDS011;70823;50.056;14.398;2023-06-22T04:44:09;8.02;;;4.50;;
81367;SDS011;70823;50.056;14.398;2023-06-22T04:46:38;8.02;;;5.10;;
81367;SDS011;70823;50.056;14.398;2023-06-22T04:49:08;7.53;;;4.32;;
81367;SDS011;70823;50.056;14.398;2023-06-22T04:51:41;6.35;;;5.10;;
81367;SDS011;70823;50.056;14.398;2023-06-22T04:54:07;6.07;;;5.20;;
81367;SDS011;70823;50.056;14.398;2023-06-22T04:56:33;8.80;;;4.90;;
81367;SDS011;70823;50.056;14.398;2023-06-22T04:58:59;10.80;;;5.32;;
81367;SDS011;70823;50.056;14.398;2023-06-22T05:01:25;5.88;;;4.65;;
81367;SDS011;70823;50.056;14.398;2023-06-22T05:03:50;10.15;;;5.72;;
81367;SDS011;70823;50.056;14.398;2023-06-22T05:06:21;7.60;;;5.93;;
81367;SDS011;70823;50.056;14.398;2023-06-22T05:08:49;10.82;;;6.00;;
81367;SDS011;70823;50.056;14.398;2023-06-22T05:11:15;7.60;;;5.53;;
81367;SDS011;70823;50.056;14.398;2023-06-22T05:13:40;7.17;;;5.43;;
81367;SDS011;70823;50.056;14.398;2023-06-22T05:16:05;7.77;;;5.50;;
81367;SDS011;70823;50.056;14.398;2023-06-22T05:18:31;7.25;;;5.25;;
81367;SDS011;70823;50.056;14.398;2023-06-22T05:20:57;7.72;;;5.55;;
81367;SDS011;70823;50.056;14.398;2023-06-22T05:23:23;6.85;;;4.95;;
81367;SDS011;70823;50.056;14.398;2023-06-22T05:25:48;6.67;;;4.97;;
81367;SDS011;70823;50.056;14.398;2023-06-22T05:28:14;6.30;;;4.97;;
81367;SDS011;70823;50.056;14.398;2023-06-22T05:30:39;6.17;;;5.13;;
81367;SDS011;70823;50.056;14.398;2023-06-22T05:33:04;7.73;;;5.10;;
81367;SDS011;70823;50.056;14.398;2023-06-22T05:35:30;7.35;;;5.03;;
81367;SDS011;70823;50.056;14.398;2023-06-22T05:37:55;6.47;;;5.10;;
81367;SDS011;70823;50.056;14.398;2023-06-22T05:40:21;7.20;;;5.50;;
81367;SDS011;70823;50.056;14.398;2023-06-22T05:42:46;6.55;;;4.88;;
81367;SDS011;70823;50.056;14.398;2023-06-22T05:45:12;6.10;;;5.50;;
81367;SDS011;70823;50.056;14.398;2023-06-22T05:47:37;6.10;;;5.30;;
81367;SDS011;70823;50.056;14.398;2023-06-22T05:50:03;7.88;;;6.80;;
81367;SDS011;70823;50.056;14.398;2023-06-22T05:52:31;10.07;;;5.68;;
81367;SDS011;70823;50.056;14.398;2023-06-22T05:54:57;8.27;;;6.03;;
81367;SDS011;70823;50.056;14.398;2023-06-22T05:57:22;8.43;;;5.83;;
81367;SDS011;70823;50.056;14.398;2023-06-22T05:59:47;11.10;;;5.80;;
81367;SDS011;70823;50.056;14.398;2023-06-22T06:02:13;10.90;;;7.07;;
81367;SDS011;70823;50.056;14.398;2023-06-22T06:04:39;10.15;;;7.20;;
81367;SDS011;70823;50.056;14.398;2023-06-22T06:07:04;9.07;;;7.20;;
81367;SDS011;70823;50.056;14.398;2023-06-22T06:09:29;9.90;;;6.83;;
81367;SDS011;70823;50.056;14.398;2023-06-22T06:11:55;10.27;;;8.40;;
81367;SDS011;70823;50.056;14.398;2023-06-22T06:14:21;9.75;;;8.10;;
81367;SDS011;70823;50.056;14.398;2023-06-22T06:16:46;12.57;;;7.33;;
81367;SDS011;70823;50.056;14.398;2023-06-22T06:19:13;9.02;;;7.88;;
81367;SDS011;70823;50.056;14.398;2023-06-22T06:21:38;8.67;;;7.67;;
81367;SDS011;70823;50.056;14.398;2023-06-22T06:24:04;9.83;;;7.57;;
81367;SDS011;70823;50.056;14.398;2023-06-22T06:26:29;10.20;;;8.45;;
81367;SDS011;70823;50.056;14.398;2023-06-22T06:28:58;15.15;;;7.82;;
81367;SDS011;70823;50.056;14.398;2023-06-22T06:31:24;8.18;;;6.80;;
81367;SDS011;70823;50.056;14.398;2023-06-22T06:33:52;9.45;;;7.22;;
81367;SDS011;70823;50.056;14.398;2023-06-22T06:36:20;9.52;;;8.10;;
81367;SDS011;70823;50.056;14.398;2023-06-22T06:38:45;12.13;;;9.20;;
81367;SDS011;70823;50.056;14.398;2023-06-22T06:41:15;13.55;;;8.18;;
81367;SDS011;70823;50.056;14.398;2023-06-22T06:43:41;11.90;;;7.72;;
81367;SDS011;70823;50.056;14.398;2023-06-22T06:46:09;13.52;;;9.82;;
81367;SDS011;70823;50.056;14.398;2023-06-22T06:48:35;9.47;;;8.33;;
81367;SDS011;70823;50.056;14.398;2023-06-22T06:51:00;10.45;;;7.65;;
81367;SDS011;70823;50.056;14.398;2023-06-22T06:53:25;9.70;;;8.50;;
81367;SDS011;70823;50.056;14.398;2023-06-22T06:55:51;12.82;;;10.52;;
81367;SDS011;70823;50.056;14.398;2023-06-22T06:58:17;9.27;;;7.83;;
81367;SDS011;70823;50.056;14.398;2023-06-22T07:00:42;12.60;;;8.57;;
81367;SDS011;70823;50.056;14.398;2023-06-22T07:03:08;12.25;;;8.90;;
81367;SDS011;70823;50.056;14.398;2023-06-22T07:05:34;10.73;;;8.20;;
81367;SDS011;70823;50.056;14.398;2023-06-22T07:08:00;11.35;;;8.95;;
81367;SDS011;70823;50.056;14.398;2023-06-22T07:10:25;12.60;;;8.23;;
81367;SDS011;70823;50.056;14.398;2023-06-22T07:12:51;12.18;;;9.02;;
81367;SDS011;70823;50.056;14.398;2023-06-22T07:15:16;10.33;;;8.13;;
81367;SDS011;70823;50.056;14.398;2023-06-22T07:17:41;12.43;;;7.38;;
81367;SDS011;70823;50.056;14.398;2023-06-22T07:20:07;10.33;;;8.83;;
81367;SDS011;70823;50.056;14.398;2023-06-22T07:22:40;9.98;;;8.07;;
81367;SDS011;70823;50.056;14.398;2023-06-22T07:25:07;10.48;;;8.25;;
81367;SDS011;70823;50.056;14.398;2023-06-22T07:27:39;9.65;;;8.05;;
81367;SDS011;70823;50.056;14.398;2023-06-22T07:30:08;10.70;;;8.77;;
81367;SDS011;70823;50.056;14.398;2023-06-22T07:32:35;8.10;;;6.90;;
81367;SDS011;70823;50.056;14.398;2023-06-22T07:35:00;14.32;;;8.20;;
81367;SDS011;70823;50.056;14.398;2023-06-22T07:37:26;12.50;;;8.75;;
81367;SDS011;70823;50.056;14.398;2023-06-22T07:39:52;13.95;;;8.48;;
81367;SDS011;70823;50.056;14.398;2023-06-22T07:42:18;11.48;;;8.25;;
81367;SDS011;70823;50.056;14.398;2023-06-22T07:44:44;13.55;;;9.75;;
81367;SDS011;70823;50.056;14.398;2023-06-22T07:47:09;12.63;;;8.37;;
81367;SDS011;70823;50.056;14.398;2023-06-22T07:49:34;11.80;;;8.53;;
81367;SDS011;70823;50.056;14.398;2023-06-22T07:52:00;10.47;;;8.20;;
81367;SDS011;70823;50.056;14.398;2023-06-22T07:54:26;11.02;;;8.32;;
81367;SDS011;70823;50.056;14.398;2023-06-22T07:56:52;9.93;;;7.47;;
81367;SDS011;70823;50.056;14.398;2023-06-22T07:59:18;12.02;;;7.82;;
81367;SDS011;70823;50.056;14.398;2023-06-22T08:01:43;9.17;;;7.70;;
81367;SDS011;70823;50.056;14.398;2023-06-22T08:04:09;8.67;;;7.00;;
81367;SDS011;70823;50.056;14.398;2023-06-22T08:06:34;10.50;;;7.80;;
81367;SDS011;70823;50.056;14.398;2023-06-22T08:08:59;8.13;;;7.27;;
81367;SDS011;70823;50.056;14.398;2023-06-22T08:11:25;9.97;;;7.57;;
81367;SDS011;70823;50.056;14.398;2023-06-22T08:13:50;8.23;;;7.07;;
81367;SDS011;70823;50.056;14.398;2023-06-22T08:16:16;9.23;;;7.60;;
81367;SDS011;70823;50.056;14.398;2023-06-22T08:18:41;9.43;;;7.53;;
81367;SDS011;70823;50.056;14.398;2023-06-22T08:21:07;11.97;;;8.40;;
81367;SDS011;70823;50.056;14.398;2023-06-22T08:23:32;8.95;;;7.57;;
81367;SDS011;70823;50.056;14.398;2023-06-22T08:25:57;9.63;;;8.17;;
81367;SDS011;70823;50.056;14.398;2023-06-22T08:28:23;10.88;;;7.68;;
81367;SDS011;70823;50.056;14.398;2023-06-22T08:30:48;9.27;;;7.37;;
81367;SDS011;70823;50.056;14.398;2023-06-22T08:33:13;9.07;;;8.00;;
81367;SDS011;70823;50.056;14.398;2023-06-22T08:35:38;10.30;;;7.75;;
81367;SDS011;70823;50.056;14.398;2023-06-22T08:38:04;11.43;;;8.15;;
81367;SDS011;70823;50.056;14.398;2023-06-22T08:40:29;8.65;;;7.75;;
81367;SDS011;70823;50.056;14.398;2023-06-22T08:42:55;10.10;;;7.40;;
81367;SDS011;70823;50.056;14.398;2023-06-22T08:45:20;9.03;;;7.63;;
81367;SDS011;70823;50.056;14.398;2023-06-22T08:47:45;9.70;;;7.43;;
81367;SDS011;70823;50.056;14.398;2023-06-22T08:50:11;9.53;;;7.87;;
81367;SDS011;70823;50.056;14.398;2023-06-22T08:52:37;10.68;;;8.52;;
81367;SDS011;70823;50.056;14.398;2023-06-22T08:55:06;9.77;;;8.40;;
81367;SDS011;70823;50.056;14.398;2023-06-22T08:57:32;9.77;;;8.02;;
81367;SDS011;70823;50.056;14.398;2023-06-22T08:59:57;9.65;;;8.00;;
81367;SDS011;70823;50.056;14.398;2023-06-22T09:02:23;8.15;;;7.07;;
81367;SDS011;70823;50.056;14.398;2023-06-22T09:04:49;8.68;;;7.78;;
81367;SDS011;70823;50.056;14.398;2023-06-22T09:07:21;9.07;;;7.95;;
81367;SDS011;70823;50.056;14.398;2023-06-22T09:09:48;9.68;;;7.35;;
81367;SDS011;70823;50.056;14.398;2023-06-22T09:12:13;10.02;;;7.88;;
81367;SDS011;70823;50.056;14.398;2023-06-22T09:14:39;9.20;;;8.02;;
81367;SDS011;70823;50.056;14.398;2023-06-22T09:17:04;10.32;;;8.02;;
81367;SDS011;70823;50.056;14.398;2023-06-22T09:19:30;9.90;;;7.55;;
81367;SDS011;70823;50.056;14.398;2023-06-22T09:21:55;9.07;;;7.53;;
81367;SDS011;70823;50.056;14.398;2023-06-22T09:24:20;11.60;;;8.43;;
81367;SDS011;70823;50.056;14.398;2023-06-22T09:26:46;8.40;;;7.50;;
81367;SDS011;70823;50.056;14.398;2023-06-22T09:29:11;8.47;;;7.27;;
81367;SDS011;70823;50.056;14.398;2023-06-22T09:31:36;9.77;;;7.70;;
81367;SDS011;70823;50.056;14.398;2023-06-22T09:34:01;10.30;;;7.73;;
81367;SDS011;70823;50.056;14.398;2023-06-22T09:36:27;9.90;;;7.77;;
81367;SDS011;70823;50.056;14.398;2023-06-22T09:38:52;9.67;;;7.50;;
81367;SDS011;70823;50.056;14.398;2023-06-22T09:41:21;8.95;;;7.90;;
81367;SDS011;70823;50.056;14.398;2023-06-22T09:43:46;8.70;;;7.75;;
81367;SDS011;70823;50.056;14.398;2023-06-22T09:46:14;9.23;;;6.70;;
81367;SDS011;70823;50.056;14.398;2023-06-22T09:48:42;7.90;;;7.13;;
81367;SDS011;70823;50.056;14.398;2023-06-22T09:51:08;10.25;;;7.82;;
81367;SDS011;70823;50.056;14.398;2023-06-22T09:53:33;11.63;;;7.63;;
81367;SDS011;70823;50.056;14.398;2023-06-22T09:55:59;8.65;;;7.35;;
81367;SDS011;70823;50.056;14.398;2023-06-22T09:58:25;12.43;;;7.53;;
81367;SDS011;70823;50.056;14.398;2023-06-22T10:00:50;10.67;;;8.00;;
81367;SDS011;70823;50.056;14.398;2023-06-22T10:03:16;7.50;;;6.70;;
81367;SDS011;70823;50.056;14.398;2023-06-22T10:05:41;10.03;;;7.67;;
81367;SDS011;70823;50.056;14.398;2023-06-22T10:08:06;9.27;;;8.02;;
81367;SDS011;70823;50.056;14.398;2023-06-22T10:13:02;10.07;;;7.60;;
81367;SDS011;70823;50.056;14.398;2023-06-22T10:15:32;8.70;;;7.88;;
81367;SDS011;70823;50.056;14.398;2023-06-22T10:17:58;11.07;;;7.97;;
81367;SDS011;70823;50.056;14.398;2023-06-22T10:20:23;8.63;;;7.73;;
81367;SDS011;70823;50.056;14.398;2023-06-22T10:22:49;8.77;;;7.95;;
81367;SDS011;70823;50.056;14.398;2023-06-22T10:25:14;9.93;;;7.80;;
81367;SDS011;70823;50.056;14.398;2023-06-22T10:27:39;8.17;;;7.33;;
81367;SDS011;70823;50.056;14.398;2023-06-22T10:30:05;9.85;;;8.23;;
81367;SDS011;70823;50.056;14.398;2023-06-22T10:32:35;8.45;;;7.47;;
81367;SDS011;70823;50.056;14.398;2023-06-22T10:35:01;9.07;;;8.13;;
81367;SDS011;70823;50.056;14.398;2023-06-22T10:37:26;8.73;;;7.68;;
81367;SDS011;70823;50.056;14.398;2023-06-22T10:39:51;9.20;;;8.27;;
81367;SDS011;70823;50.056;14.398;2023-06-22T10:42:17;9.37;;;8.47;;
81367;SDS011;70823;50.056;14.398;2023-06-22T10:44:42;10.70;;;8.30;;
81367;SDS011;70823;50.056;14.398;2023-06-22T10:47:09;10.18;;;7.70;;
81367;SDS011;70823;50.056;14.398;2023-06-22T10:49:36;10.00;;;8.40;;
81367;SDS011;70823;50.056;14.398;2023-06-22T10:52:01;9.67;;;7.33;;
81367;SDS011;70823;50.056;14.398;2023-06-22T10:54:26;8.80;;;7.50;;
81367;SDS011;70823;50.056;14.398;2023-06-22T10:56:52;8.93;;;8.03;;
81367;SDS011;70823;50.056;14.398;2023-06-22T10:59:17;8.90;;;8.00;;
81367;SDS011;70823;50.056;14.398;2023-06-22T11:01:42;10.47;;;7.53;;
81367;SDS011;70823;50.056;14.398;2023-06-22T11:04:07;7.60;;;6.83;;
81367;SDS011;70823;50.056;14.398;2023-06-22T11:06:33;12.37;;;7.53;;
81367;SDS011;70823;50.056;14.398;2023-06-22T11:08:58;10.00;;;7.63;;
81367;SDS011;70823;50.056;14.398;2023-06-22T11:11:25;11.40;;;8.60;;
81367;SDS011;70823;50.056;14.398;2023-06-22T11:13:50;9.00;;;7.40;;
81367;SDS011;70823;50.056;14.398;2023-06-22T11:16:15;10.00;;;7.50;;
81367;SDS011;70823;50.056;14.398;2023-06-22T11:18:41;8.52;;;7.60;;
81367;SDS011;70823;50.056;14.398;2023-06-22T11:21:06;8.35;;;7.45;;
81367;SDS011;70823;50.056;14.398;2023-06-22T11:23:32;9.53;;;8.63;;
81367;SDS011;70823;50.056;14.398;2023-06-22T11:25:57;9.13;;;7.65;;
81367;SDS011;70823;50.056;14.398;2023-06-22T11:28:22;10.00;;;7.68;;
81367;SDS011;70823;50.056;14.398;2023-06-22T11:30:48;9.70;;;7.50;;
81367;SDS011;70823;50.056;14.398;2023-06-22T11:33:13;9.60;;;7.87;;
81367;SDS011;70823;50.056;14.398;2023-06-22T11:35:38;9.37;;;7.67;;
81367;SDS011;70823;50.056;14.398;2023-06-22T11:38:03;8.57;;;7.17;;
81367;SDS011;70823;50.056;14.398;2023-06-22T11:40:29;10.68;;;8.25;;
81367;SDS011;70823;50.056;14.398;2023-06-22T11:42:55;9.85;;;7.95;;
81367;SDS011;70823;50.056;14.398;2023-06-22T11:45:20;10.37;;;7.73;;
81367;SDS011;70823;50.056;14.398;2023-06-22T11:47:46;8.35;;;7.45;;
81367;SDS011;70823;50.056;14.398;2023-06-22T11:50:11;9.02;;;8.13;;
81367;SDS011;70823;50.056;14.398;2023-06-22T11:52:36;7.97;;;7.03;;
81367;SDS011;70823;50.056;14.398;2023-06-22T11:55:02;8.23;;;7.13;;
81367;SDS011;70823;50.056;14.398;2023-06-22T11:59:55;10.97;;;7.37;;
81367;SDS011;70823;50.056;14.398;2023-06-22T12:02:20;8.50;;;7.07;;
81367;SDS011;70823;50.056;14.398;2023-06-22T12:04:45;10.50;;;7.57;;
81367;SDS011;70823;50.056;14.398;2023-06-22T12:07:11;10.13;;;7.28;;
81367;SDS011;70823;50.056;14.398;2023-06-22T12:09:36;9.23;;;7.80;;
81367;SDS011;70823;50.056;14.398;2023-06-22T12:12:02;8.38;;;7.25;;
81367;SDS011;70823;50.056;14.398;2023-06-22T12:14:27;7.45;;;6.72;;
81367;SDS011;70823;50.056;14.398;2023-06-22T12:16:53;7.63;;;6.33;;
81367;SDS011;70823;50.056;14.398;2023-06-22T12:19:18;8.87;;;7.47;;
81367;SDS011;70823;50.056;14.398;2023-06-22T12:21:43;8.00;;;6.27;;
81367;SDS011;70823;50.056;14.398;2023-06-22T12:24:10;7.03;;;6.32;;
81367;SDS011;70823;50.056;14.398;2023-06-22T12:26:36;8.13;;;5.83;;
81367;SDS011;70823;50.056;14.398;2023-06-22T12:29:01;10.53;;;6.77;;
81367;SDS011;70823;50.056;14.398;2023-06-22T12:31:26;8.05;;;7.00;;
81367;SDS011;70823;50.056;14.398;2023-06-22T12:33:52;8.20;;;7.15;;
81367;SDS011;70823;50.056;14.398;2023-06-22T12:36:17;8.07;;;6.97;;
81367;SDS011;70823;50.056;14.398;2023-06-22T12:38:43;8.17;;;7.27;;
81367;SDS011;70823;50.056;14.398;2023-06-22T12:41:08;11.47;;;7.83;;
81367;SDS011;70823;50.056;14.398;2023-06-22T12:43:33;11.67;;;7.20;;
81367;SDS011;70823;50.056;14.398;2023-06-22T12:45:58;8.60;;;6.73;;
81367;SDS011;70823;50.056;14.398;2023-06-22T12:48:25;8.25;;;6.88;;
81367;SDS011;70823;50.056;14.398;2023-06-22T12:50:51;9.35;;;7.43;;
81367;SDS011;70823;50.056;14.398;2023-06-22T12:53:16;9.63;;;7.43;;
81367;SDS011;70823;50.056;14.398;2023-06-22T12:55:41;8.33;;;6.60;;
81367;SDS011;70823;50.056;14.398;2023-06-22T12:58:07;7.47;;;6.67;;
81367;SDS011;70823;50.056;14.398;2023-06-22T13:00:32;8.30;;;7.43;;
81367;SDS011;70823;50.056;14.398;2023-06-22T13:02:57;7.73;;;6.57;;
81367;SDS011;70823;50.056;14.398;2023-06-22T13:05:23;7.03;;;6.10;;
81367;SDS011;70823;50.056;14.398;2023-06-22T13:07:48;8.30;;;6.43;;
81367;SDS011;70823;50.056;14.398;2023-06-22T13:10:14;8.57;;;6.60;;
81367;SDS011;70823;50.056;14.398;2023-06-22T13:12:39;8.80;;;6.72;;
81367;SDS011;70823;50.056;14.398;2023-06-22T13:15:04;8.27;;;6.70;;
81367;SDS011;70823;50.056;14.398;2023-06-22T13:17:30;8.10;;;7.10;;
81367;SDS011;70823;50.056;14.398;2023-06-22T13:19:56;8.67;;;6.77;;
81367;SDS011;70823;50.056;14.398;2023-06-22T13:22:39;7.43;;;6.67;;
81367;SDS011;70823;50.056;14.398;2023-06-22T13:25:05;8.35;;;7.18;;
81367;SDS011;70823;50.056;14.398;2023-06-22T13:27:31;12.02;;;7.57;;
81367;SDS011;70823;50.056;14.398;2023-06-22T13:29:56;7.75;;;6.90;;
81367;SDS011;70823;50.056;14.398;2023-06-22T13:32:22;10.60;;;6.53;;
81367;SDS011;70823;50.056;14.398;2023-06-22T13:34:47;8.48;;;7.40;;
81367;SDS011;70823;50.056;14.398;2023-06-22T13:37:12;9.77;;;6.73;;
81367;SDS011;70823;50.056;14.398;2023-06-22T13:39:38;11.00;;;7.03;;
81367;SDS011;70823;50.056;14.398;2023-06-22T13:42:03;8.10;;;6.90;;
81367;SDS011;70823;50.056;14.398;2023-06-22T13:44:29;7.90;;;6.60;;
81367;SDS011;70823;50.056;14.398;2023-06-22T13:46:54;7.27;;;6.57;;
81367;SDS011;70823;50.056;14.398;2023-06-22T13:49:20;7.00;;;6.22;;
81367;SDS011;70823;50.056;14.398;2023-06-22T13:51:46;9.15;;;6.72;;
81367;SDS011;70823;50.056;14.398;2023-06-22T13:54:13;11.25;;;6.50;;
81367;SDS011;70823;50.056;14.398;2023-06-22T13:56:38;8.57;;;6.72;;
81367;SDS011;70823;50.056;14.398;2023-06-22T13:59:03;9.73;;;7.43;;
81367;SDS011;70823;50.056;14.398;2023-06-22T14:01:29;9.33;;;6.60;;
81367;SDS011;70823;50.056;14.398;2023-06-22T14:03:54;7.60;;;6.83;;
81367;SDS011;70823;50.056;14.398;2023-06-22T14:06:19;9.77;;;6.97;;
81367;SDS011;70823;50.056;14.398;2023-06-22T14:08:44;8.13;;;6.90;;
81367;SDS011;70823;50.056;14.398;2023-06-22T14:11:10;8.97;;;6.57;;
81367;SDS011;70823;50.056;14.398;2023-06-22T14:13:35;9.27;;;6.87;;
81367;SDS011;70823;50.056;14.398;2023-06-22T14:16:00;9.10;;;6.90;;
81367;SDS011;70823;50.056;14.398;2023-06-22T14:18:26;8.18;;;7.38;;
81367;SDS011;70823;50.056;14.398;2023-06-22T14:20:51;10.63;;;8.17;;
81367;SDS011;70823;50.056;14.398;2023-06-22T14:23:17;9.27;;;6.50;;
81367;SDS011;70823;50.056;14.398;2023-06-22T14:25:42;8.97;;;7.10;;
81367;SDS011;70823;50.056;14.398;2023-06-22T14:28:07;9.00;;;7.50;;
81367;SDS011;70823;50.056;14.398;2023-06-22T14:30:32;7.83;;;7.00;;
81367;SDS011;70823;50.056;14.398;2023-06-22T14:32:58;11.47;;;7.33;;
81367;SDS011;70823;50.056;14.398;2023-06-22T14:35:23;12.63;;;8.10;;
81367;SDS011;70823;50.056;14.398;2023-06-22T14:37:49;8.50;;;7.55;;
81367;SDS011;70823;50.056;14.398;2023-06-22T14:40:14;8.70;;;6.97;;
81367;SDS011;70823;50.056;14.398;2023-06-22T14:42:40;8.10;;;7.18;;
81367;SDS011;70823;50.056;14.398;2023-06-22T14:45:05;10.30;;;7.60;;
81367;SDS011;70823;50.056;14.398;2023-06-22T14:47:31;8.25;;;6.75;;
81367;SDS011;70823;50.056;14.398;2023-06-22T14:49:56;8.17;;;7.07;;